Time;durP1;ratioP1;P1;durP2;ratioP2;P2;SDS_P1;SDS_P2;PMS_P1;PMS_P2;Temp;Humidity;BMP_temperature;BMP_pressure;BME280_temperature;BME280_humidity;BME280_pressure;Samples;Min_cycle;Max_cycle;Signal;HPM_P1;HPM_P2
2023/02/02 00:00:51;;;;;;;0.27;0.27;;;5.50;99.00;6.00;96736.00;;;;5069668;28;20207;-67
2023/02/02 00:03:40;;;;;;;0.47;0.40;;;5.20;99.00;5.70;96724.00;;;;5069945;28;20222;-63
2023/02/02 00:06:30;;;;;;;0.63;0.40;;;5.30;99.90;5.80;96718.00;;;;5069310;28;20203;-69
2023/02/02 00:09:21;;;;;;;0.40;0.40;;;5.40;99.90;5.90;96722.00;;;;5064921;28;20222;-70
2023/02/02 00:12:10;;;;;;;0.40;0.40;;;5.40;99.90;6.10;96705.00;;;;5059682;28;20283;-66
2023/02/02 00:15:00;;;;;;;0.63;0.63;;;5.30;99.90;5.90;96700.00;;;;5062651;28;20277;-65
2023/02/02 00:17:48;;;;;;;0.40;0.40;;;5.30;99.90;6.30;96715.00;;;;5068828;28;20215;-67
2023/02/02 00:20:37;;;;;;;0.53;0.53;;;5.30;99.90;5.90;96710.00;;;;5070236;28;20254;-66
2023/02/02 00:23:26;;;;;;;0.57;0.57;;;5.30;99.90;6.00;96715.00;;;;5069743;28;20258;-65
2023/02/02 00:26:16;;;;;;;0.43;0.43;;;5.30;99.90;6.30;96717.00;;;;5069777;28;20231;-64
2023/02/02 00:29:06;;;;;;;0.70;0.70;;;5.30;99.90;6.40;96711.00;;;;5069329;28;20210;-66
2023/02/02 00:31:56;;;;;;;1.50;0.77;;;5.30;99.90;6.30;96712.00;;;;5069885;28;20246;-66
2023/02/02 00:34:45;;;;;;;14.10;0.87;;;5.30;99.90;6.10;96721.00;;;;5068944;28;20678;-66
2023/02/02 00:37:34;;;;;;;0.60;0.60;;;5.30;99.90;5.70;96715.00;;;;5069367;28;20217;-65
2023/02/02 00:40:23;;;;;;;0.40;0.40;;;5.30;99.90;5.20;96722.00;;;;5068720;28;20261;-65
2023/02/02 00:43:11;;;;;;;0.47;0.47;;;5.10;99.90;5.50;96708.00;;;;5069093;28;20282;-67
2023/02/02 00:45:59;;;;;;;0.30;0.30;;;5.20;99.90;5.50;96722.00;;;;5067543;28;20265;-70
2023/02/02 00:48:49;;;;;;;0.40;0.40;;;5.00;99.90;5.40;96709.00;;;;5068767;28;20220;-66
2023/02/02 00:51:38;;;;;;;0.40;0.40;;;4.90;99.90;5.50;96701.00;;;;5062637;28;20196;-65
2023/02/02 00:54:27;;;;;;;1.83;0.50;;;4.90;99.90;5.70;96704.00;;;;5061575;28;20449;-65
2023/02/02 00:57:16;;;;;;;0.60;0.53;;;4.90;99.90;5.70;96707.00;;;;5075882;28;20688;-69
2023/02/02 01:00:07;;;;;;;0.40;0.40;;;4.90;99.90;5.70;96703.00;;;;5072177;28;20200;-67
2023/02/02 01:03:03;;;;;;;0.57;0.57;;;4.80;99.90;5.70;96705.00;;;;5072446;28;20231;-68
2023/02/02 01:05:53;;;;;;;0.47;0.47;;;4.80;99.90;5.80;96702.00;;;;5073125;28;20895;-67
2023/02/02 01:08:41;;;;;;;2.53;0.40;;;4.80;99.90;5.90;96707.00;;;;5071869;28;20220;-65
2023/02/02 01:11:30;;;;;;;0.40;0.40;;;4.80;99.90;5.60;96704.00;;;;5072696;28;20687;-66
2023/02/02 01:14:19;;;;;;;0.47;0.47;;;4.80;99.90;5.30;96716.00;;;;5073364;28;20265;-66
2023/02/02 01:17:08;;;;;;;0.40;0.40;;;4.70;99.90;5.30;96713.00;;;;5072944;28;20231;-64
2023/02/02 01:19:56;;;;;;;0.50;0.40;;;4.70;99.90;5.40;96730.00;;;;5072220;28;20292;-65
2023/02/02 01:22:47;;;;;;;1.70;0.40;;;4.70;99.90;5.10;96725.00;;;;5072538;28;20705;-66
2023/02/02 01:25:37;;;;;;;0.30;0.30;;;;;5.10;96735.00;;;;5072966;28;20505;-65
2023/02/02 01:28:27;;;;;;;0.43;0.43;;;4.70;99.90;5.50;96716.00;;;;5070773;28;20461;-68
2023/02/02 01:31:20;;;;;;;0.37;0.37;;;4.70;99.90;5.20;96700.00;;;;5072911;28;20203;-70
2023/02/02 01:34:09;;;;;;;0.43;0.40;;;4.60;99.90;5.30;96706.00;;;;5071475;28;20204;-71
2023/02/02 01:36:58;;;;;;;0.63;0.47;;;4.60;99.90;5.50;96690.00;;;;5060313;28;20309;-68
2023/02/02 01:39:48;;;;;;;0.93;0.50;;;4.60;99.90;5.60;96684.00;;;;5072261;28;20211;-68
2023/02/02 01:42:37;;;;;;;0.80;0.70;;;4.50;99.90;5.70;96684.00;;;;5072761;28;20218;-68
2023/02/02 01:45:28;;;;;;;0.40;0.40;;;4.50;99.90;5.60;96681.00;;;;5070819;28;20702;-68
2023/02/02 01:48:18;;;;;;;0.53;0.53;;;4.50;99.90;5.60;96686.00;;;;5071569;28;20224;-67
2023/02/02 01:51:13;;;;;;;0.73;0.33;;;4.30;99.90;5.50;96691.00;;;;5071686;28;20215;-67
2023/02/02 01:54:06;;;;;;;0.40;0.40;;;4.40;99.90;5.60;96682.00;;;;5070689;28;20233;-67
2023/02/02 01:57:00;;;;;;;0.40;0.40;;;4.40;99.90;5.60;96681.00;;;;5072889;28;20231;-66
2023/02/02 01:59:51;;;;;;;0.40;0.33;;;4.40;99.90;5.60;96688.00;;;;5062482;28;20583;-67
2023/02/02 02:02:43;;;;;;;0.40;0.40;;;4.40;99.90;5.60;96683.00;;;;5072522;28;20200;-68
2023/02/02 02:05:36;;;;;;;0.60;0.60;;;4.40;99.90;5.60;96685.00;;;;5072422;28;20238;-68
2023/02/02 02:08:29;;;;;;;0.37;0.37;;;4.30;99.90;5.50;96672.00;;;;5071906;28;20215;-67
2023/02/02 02:11:19;;;;;;;1.47;0.30;;;4.30;99.90;4.90;96665.00;;;;5071625;28;20216;-71
2023/02/02 02:17:33;;;;;;;0.30;0.30;;;4.30;99.90;5.20;96671.00;;;;5071322;28;20597;-70
2023/02/02 02:28:59;;;;;;;0.63;0.60;;;4.30;99.90;5.00;96660.00;;;;5071350;28;20864;-65
2023/02/02 02:32:04;;;;;;;0.40;0.40;;;4.40;99.90;5.20;96657.00;;;;5070495;28;20430;-67
2023/02/02 02:35:01;;;;;;;0.40;0.40;;;4.40;99.90;5.30;96656.00;;;;5071693;28;20434;-67
2023/02/02 02:37:54;;;;;;;1.43;0.70;;;4.40;99.90;5.30;96661.00;;;;5069970;28;20484;-67
2023/02/02 02:40:51;;;;;;;0.37;0.33;;;4.50;99.90;5.30;96648.00;;;;5071562;28;20423;-67
2023/02/02 02:43:47;;;;;;;0.30;0.30;;;4.40;99.90;4.90;96657.00;;;;5071701;28;20512;-66
2023/02/02 02:46:37;;;;;;;0.33;0.33;;;4.50;99.90;5.00;96670.00;;;;5071127;28;20465;-70
2023/02/02 02:49:27;;;;;;;0.40;0.40;;;4.30;99.90;4.90;96668.00;;;;5070112;28;20500;-64
2023/02/02 02:52:16;;;;;;;0.40;0.40;;;4.40;99.90;4.80;96640.00;;;;5071611;28;20832;-65
2023/02/02 02:55:07;;;;;;;0.30;0.30;;;4.40;99.90;5.20;96667.00;;;;5071287;28;20422;-68
2023/02/02 02:58:10;;;;;;;0.53;0.40;;;4.40;99.90;5.30;96654.00;;;;5071138;28;20446;-66
2023/02/02 03:01:07;;;;;;;0.47;0.47;;;4.40;99.90;5.20;96647.00;;;;5071226;28;20799;-70
2023/02/02 03:04:08;;;;;;;0.37;0.37;;;4.50;99.90;5.30;96639.00;;;;5069923;28;20418;-66
2023/02/02 03:07:07;;;;;;;0.30;0.30;;;4.40;99.90;5.10;96634.00;;;;5069673;28;20512;-64
2023/02/02 03:09:58;;;;;;;0.30;0.30;;;4.30;99.90;5.30;96645.00;;;;5070492;28;20480;-67
2023/02/02 03:12:50;;;;;;;0.40;0.40;;;4.50;99.90;5.20;96643.00;;;;5059727;28;20467;-66
2023/02/02 03:15:41;;;;;;;0.50;0.50;;;4.50;99.90;5.20;96633.00;;;;5069370;28;20423;-66
2023/02/02 03:18:32;;;;;;;0.40;0.40;;;4.50;99.90;5.60;96642.00;;;;5070293;28;20443;-67
2023/02/02 03:21:21;;;;;;;0.40;0.40;;;4.60;99.90;5.50;96639.00;;;;5070114;28;20418;-68
2023/02/02 03:24:11;;;;;;;1.20;0.50;;;4.60;99.90;5.60;96645.00;;;;5070740;28;20423;-67
2023/02/02 03:27:00;;;;;;;0.50;0.50;;;4.60;99.90;5.30;96628.00;;;;5070760;28;20232;-68
2023/02/02 03:29:49;;;;;;;0.40;0.40;;;4.60;99.90;5.60;96628.00;;;;5070317;28;20949;-66
2023/02/02 03:32:38;;;;;;;0.93;0.57;;;4.60;99.90;5.90;96635.00;;;;5069846;28;20426;-67
2023/02/02 03:35:26;;;;;;;0.40;0.40;;;4.60;99.90;5.90;96637.00;;;;5069367;28;20445;-67
2023/02/02 03:38:15;;;;;;;0.30;0.30;;;4.60;99.90;5.90;96639.00;;;;5069999;28;20443;-67
2023/02/02 03:41:06;;;;;;;1.53;0.97;;;4.60;99.90;5.80;96629.00;;;;5069914;28;20265;-66
2023/02/02 03:43:55;;;;;;;1.00;1.00;;;4.60;99.90;5.80;96630.00;;;;5070442;28;20485;-67
2023/02/02 03:46:44;;;;;;;2.07;1.03;;;4.50;99.90;5.80;96620.00;;;;5069642;28;20324;-67
2023/02/02 03:49:32;;;;;;;1.17;0.73;;;4.50;99.90;5.70;96613.00;;;;5068710;28;20275;-67
2023/02/02 03:52:21;;;;;;;0.40;0.40;;;4.50;99.90;5.70;96607.00;;;;5070588;28;20623;-67
2023/02/02 03:55:10;;;;;;;0.80;0.43;;;4.50;99.90;5.40;96610.00;;;;5069495;28;20284;-69
2023/02/02 03:58:00;;;;;;;0.40;0.40;;;4.40;99.90;5.50;96608.00;;;;5068459;28;20224;-68
2023/02/02 04:00:48;;;;;;;0.30;0.30;;;4.40;99.90;5.50;96614.00;;;;5070217;28;20188;-67
2023/02/02 04:03:37;;;;;;;0.30;0.30;;;4.30;99.90;5.80;96600.00;;;;5069346;28;20199;-67
2023/02/02 04:06:26;;;;;;;0.60;0.50;;;4.30;99.90;5.80;96609.00;;;;5069981;28;20757;-67
2023/02/02 04:09:15;;;;;;;0.30;0.30;;;4.40;99.90;5.80;96616.00;;;;5068543;28;20241;-67
2023/02/02 04:12:04;;;;;;;0.30;0.30;;;4.40;99.90;5.50;96613.00;;;;5064337;28;20201;-69
2023/02/02 04:14:54;;;;;;;0.30;0.30;;;4.40;99.90;5.60;96606.00;;;;5065841;28;20316;-66
2023/02/02 04:17:43;;;;;;;0.30;0.30;;;4.40;99.90;5.80;96609.00;;;;5069778;28;20228;-67
2023/02/02 04:20:32;;;;;;;0.40;0.37;;;4.40;99.90;5.70;96624.00;;;;5068980;28;20249;-66
2023/02/02 04:23:21;;;;;;;0.50;0.50;;;4.50;99.90;5.70;96630.00;;;;5066565;28;20199;-67
2023/02/02 04:26:09;;;;;;;0.83;0.47;;;4.40;99.90;5.70;96645.00;;;;5054476;28;20223;-66
2023/02/02 04:28:58;;;;;;;0.40;0.40;;;4.40;99.90;5.70;96661.00;;;;5065784;28;20250;-67
2023/02/02 04:31:48;;;;;;;0.30;0.30;;;4.40;99.90;5.70;96658.00;;;;5063511;28;20207;-67
2023/02/02 04:34:37;;;;;;;0.60;0.60;;;4.40;99.90;5.40;96674.00;;;;5067807;28;20906;-67
2023/02/02 04:37:26;;;;;;;0.57;0.43;;;4.30;99.90;5.40;96677.00;;;;5069068;28;20239;-66
2023/02/02 04:40:15;;;;;;;0.40;0.40;;;4.30;99.90;5.40;96686.00;;;;5069622;28;20744;-67
2023/02/02 04:43:04;;;;;;;0.60;0.40;;;4.30;99.90;5.50;96690.00;;;;5069544;28;20215;-66
2023/02/02 04:45:56;;;;;;;0.70;0.70;;;4.20;99.90;5.40;96688.00;;;;5069743;28;20293;-66
2023/02/02 04:48:49;;;;;;;0.60;0.50;;;4.20;99.90;5.40;96697.00;;;;5068746;28;20224;-66
2023/02/02 04:51:38;;;;;;;0.40;0.40;;;4.10;99.90;5.40;96704.00;;;;5060891;28;20200;-66
2023/02/02 04:54:27;;;;;;;0.60;0.60;;;4.20;99.90;5.30;96710.00;;;;5057877;28;20207;-66
2023/02/02 04:57:16;;;;;;;0.60;0.50;;;4.20;99.90;5.30;96712.00;;;;5069651;28;20822;-67
2023/02/02 05:00:06;;;;;;;0.47;0.47;;;4.10;99.90;5.20;96723.00;;;;5069066;28;20211;-66
2023/02/02 05:02:55;;;;;;;0.37;0.37;;;4.10;99.90;5.20;96722.00;;;;5069543;28;20207;-66
2023/02/02 05:05:45;;;;;;;0.60;0.53;;;4.00;99.90;4.80;96720.00;;;;5065030;28;20611;-67
2023/02/02 05:08:34;;;;;;;2.53;1.07;;;4.00;99.90;4.80;96710.00;;;;5063404;28;20220;-67
2023/02/02 05:11:24;;;;;;;0.50;0.50;;;3.90;99.90;4.80;96710.00;;;;5068390;28;20199;-67
2023/02/02 05:14:17;;;;;;;0.63;0.60;;;;;4.80;96708.00;;;;5068051;28;20195;-67
2023/02/02 05:17:05;;;;;;;0.40;0.40;;;3.70;99.90;4.80;96715.00;;;;5068499;28;20434;-67
2023/02/02 05:19:54;;;;;;;0.60;0.60;;;3.70;99.90;4.70;96711.00;;;;5068276;28;20197;-67
2023/02/02 05:22:44;;;;;;;0.30;0.30;;;3.70;99.90;4.70;96718.00;;;;5068434;28;20235;-67
2023/02/02 05:25:33;;;;;;;0.37;0.37;;;3.60;99.90;4.60;96722.00;;;;5068364;28;20200;-67
2023/02/02 05:28:22;;;;;;;0.50;0.50;;;3.60;99.90;4.60;96723.00;;;;5065242;28;20474;-67
2023/02/02 05:31:11;;;;;;;0.30;0.30;;;3.50;99.90;4.40;96731.00;;;;5052808;28;20220;-67
2023/02/02 05:34:00;;;;;;;0.60;0.60;;;3.50;99.90;4.30;96726.00;;;;5067517;28;20422;-67
2023/02/02 05:36:49;;;;;;;0.40;0.40;;;3.30;99.90;4.40;96722.00;;;;5068735;28;20224;-67
2023/02/02 05:39:39;;;;;;;0.60;0.60;;;3.30;99.90;4.30;96745.00;;;;5070039;28;20953;-67
2023/02/02 05:42:28;;;;;;;0.50;0.50;;;3.20;99.90;4.20;96748.00;;;;5068973;28;20426;-67
2023/02/02 05:45:17;;;;;;;0.40;0.40;;;3.20;99.90;4.00;96753.00;;;;5067901;28;20809;-67
2023/02/02 05:48:06;;;;;;;0.40;0.40;;;3.10;99.90;3.80;96766.00;;;;5067963;28;20477;-67
2023/02/02 05:51:01;;;;;;;0.60;0.60;;;3.00;99.90;3.80;96768.00;;;;5064883;28;20429;-67
2023/02/02 05:53:50;;;;;;;2.37;0.60;;;;;3.80;96773.00;;;;5068930;28;20427;-67
2023/02/02 05:56:40;;;;;;;0.57;0.57;;;2.90;99.90;3.80;96771.00;;;;5064686;28;20466;-67
2023/02/02 05:59:29;;;;;;;0.60;0.60;;;2.80;99.90;3.70;96757.00;;;;5059741;28;20422;-67
2023/02/02 06:02:17;;;;;;;0.50;0.50;;;2.70;99.90;3.60;96758.00;;;;5066585;28;20508;-67
2023/02/02 06:05:07;;;;;;;0.50;0.50;;;2.70;99.90;3.50;96776.00;;;;5070660;28;20422;-67
2023/02/02 06:07:56;;;;;;;1.20;1.10;;;2.60;99.90;3.50;96778.00;;;;5065335;28;20516;-67
2023/02/02 06:10:45;;;;;;;0.50;0.40;;;;;3.40;96779.00;;;;5071612;28;20426;-67
2023/02/02 06:13:35;;;;;;;0.60;0.60;;;2.50;99.90;3.20;96792.00;;;;5058559;28;20837;-67
2023/02/02 06:16:24;;;;;;;0.70;0.70;;;;;2.40;96814.00;;;;5070825;28;20512;-68
2023/02/02 06:19:13;;;;;;;0.70;0.70;;;2.10;99.90;2.60;96806.00;;;;5069665;28;20431;-67
2023/02/02 06:22:02;;;;;;;1.03;0.93;;;2.10;99.90;2.90;96819.00;;;;5062416;28;20419;-67
2023/02/02 06:24:52;;;;;;;1.37;0.60;;;2.20;99.90;2.60;96818.00;;;;5066316;28;20434;-67
2023/02/02 06:27:41;;;;;;;0.70;0.70;;;2.10;99.90;2.80;96831.00;;;;5066683;28;20838;-66
2023/02/02 06:30:31;;;;;;;2.30;1.07;;;1.80;99.90;2.90;96834.00;;;;5064585;28;20489;-66
2023/02/02 06:33:20;;;;;;;2.73;1.77;;;2.00;99.90;2.50;96822.00;;;;5058103;28;20437;-66
2023/02/02 06:36:08;;;;;;;2.60;1.27;;;1.80;99.90;2.30;96816.00;;;;5063474;28;20809;-67
2023/02/02 06:38:58;;;;;;;11.80;6.77;;;1.80;99.90;2.30;96823.00;;;;5067939;28;20414;-67
2023/02/02 06:41:47;;;;;;;3.73;2.20;;;1.90;99.90;2.50;96826.00;;;;5070996;28;20431;-66
2023/02/02 06:44:35;;;;;;;4.77;1.40;;;1.70;99.90;2.70;96815.00;;;;5070262;28;20414;-67
2023/02/02 06:47:26;;;;;;;1.23;1.13;;;1.70;99.90;2.80;96832.00;;;;5069836;28;20466;-66
2023/02/02 06:50:15;;;;;;;2.43;1.80;;;1.70;99.90;2.70;96827.00;;;;5061309;28;20431;-67
2023/02/02 06:53:04;;;;;;;5.13;0.90;;;;;2.70;96840.00;;;;5069158;28;20447;-67
2023/02/02 06:55:56;;;;;;;3.67;1.63;;;1.70;99.90;2.70;96849.00;;;;5063340;28;21029;-67
2023/02/02 06:58:45;;;;;;;1.50;1.40;;;1.70;99.90;2.60;96853.00;;;;5069368;28;20796;-67
2023/02/02 07:01:34;;;;;;;1.00;1.00;;;1.70;99.90;2.60;96856.00;;;;5070948;28;20437;-66
2023/02/02 07:04:24;;;;;;;0.80;0.80;;;1.90;99.90;2.70;96863.00;;;;5070448;28;20805;-66
2023/02/02 07:07:12;;;;;;;1.93;1.23;;;1.70;99.90;2.70;96864.00;;;;5068796;28;20913;-66
2023/02/02 07:10:01;;;;;;;1.40;1.30;;;1.70;99.90;2.90;96861.00;;;;5065024;28;20435;-67
2023/02/02 07:12:50;;;;;;;1.87;1.67;;;2.10;99.90;3.00;96862.00;;;;5064766;28;20426;-67
2023/02/02 07:15:40;;;;;;;1.10;1.10;;;1.80;99.90;3.00;96867.00;;;;5069738;28;20459;-66
2023/02/02 07:18:29;;;;;;;1.60;1.50;;;1.80;99.90;3.10;96876.00;;;;5065998;28;20892;-66
2023/02/02 07:21:23;;;;;;;2.37;1.90;;;1.80;99.90;3.10;96891.00;;;;5071066;28;20432;-67
2023/02/02 07:24:12;;;;;;;1.90;1.80;;;1.90;99.90;3.20;96911.00;;;;5069143;28;20415;-66
2023/02/02 07:27:00;;;;;;;1.60;1.50;;;2.00;99.90;3.20;96901.00;;;;5068382;28;20442;-67
2023/02/02 07:29:49;;;;;;;3.63;2.20;;;;;3.10;96890.00;;;;5070494;28;20442;-66
2023/02/02 07:32:38;;;;;;;2.20;2.00;;;;;3.10;96889.00;;;;5057778;28;20446;-66
2023/02/02 07:35:27;;;;;;;3.67;1.80;;;;;3.00;96883.00;;;;5063514;28;20438;-66
2023/02/02 07:38:17;;;;;;;1.77;1.53;;;2.10;99.90;2.90;96893.00;;;;5067341;28;20442;-67
2023/02/02 07:41:06;;;;;;;1.77;1.67;;;2.00;99.90;2.90;96896.00;;;;5070239;28;20419;-66
2023/02/02 07:43:55;;;;;;;1.40;1.30;;;2.00;99.90;3.00;96896.00;;;;5069594;28;20430;-66
2023/02/02 07:46:46;;;;;;;1.80;1.70;;;1.90;99.90;3.20;96904.00;;;;5070389;28;20429;-66
2023/02/02 07:49:35;;;;;;;1.70;1.33;;;2.20;99.90;3.10;96897.00;;;;5069654;28;20462;-66
2023/02/02 07:52:23;;;;;;;4.77;1.40;;;2.00;99.90;3.10;96903.00;;;;5069572;28;20419;-66
2023/02/02 07:55:13;;;;;;;3.80;1.87;;;2.10;99.90;3.00;96913.00;;;;5069666;28;20426;-66
2023/02/02 07:58:02;;;;;;;2.13;1.87;;;2.10;99.90;2.90;96906.00;;;;5068841;28;20454;-66
2023/02/02 08:00:51;;;;;;;1.67;1.57;;;2.10;99.90;3.10;96911.00;;;;5067432;28;20512;-66
2023/02/02 08:03:41;;;;;;;2.33;1.90;;;2.10;99.90;3.30;96926.00;;;;5066047;28;20437;-66
2023/02/02 08:06:33;;;;;;;2.20;1.67;;;2.00;99.90;3.30;96914.00;;;;5069568;28;20423;-66
2023/02/02 08:09:21;;;;;;;6.87;4.77;;;2.30;99.90;3.10;96911.00;;;;5068177;28;20520;-67
2023/02/02 08:12:12;;;;;;;3.33;2.50;;;2.10;99.90;3.20;96919.00;;;;5062579;28;20988;-66
2023/02/02 08:15:00;;;;;;;9.07;7.17;;;;;3.20;96925.00;;;;5070115;28;20426;-66
2023/02/02 08:17:49;;;;;;;4.70;3.57;;;2.20;99.90;3.20;96925.00;;;;5067854;28;20461;-66
2023/02/02 08:20:38;;;;;;;2.07;1.87;;;2.20;99.90;3.10;96923.00;;;;5061341;28;20439;-66
2023/02/02 08:23:28;;;;;;;1.40;1.20;;;2.40;99.90;3.10;96925.00;;;;5066758;28;20434;-66
2023/02/02 08:26:20;;;;;;;2.00;1.87;;;2.20;99.90;3.10;96935.00;;;;5068440;28;20831;-66
2023/02/02 08:29:15;;;;;;;3.10;2.90;;;2.20;99.90;3.00;96932.00;;;;5064707;28;20855;-68
2023/02/02 08:32:05;;;;;;;1.90;1.80;;;2.10;99.90;2.90;96939.00;;;;5059830;28;20507;-66
2023/02/02 08:34:54;;;;;;;2.00;1.90;;;2.10;99.90;2.80;96943.00;;;;5066555;28;20466;-66
2023/02/02 08:37:43;;;;;;;4.13;2.77;;;;;2.90;96951.00;;;;5066701;28;20450;-67
2023/02/02 08:40:32;;;;;;;5.40;4.90;;;;;3.10;96952.00;;;;5068691;28;20488;-66
2023/02/02 08:43:20;;;;;;;4.33;2.77;;;2.00;99.90;3.20;96956.00;;;;5062202;28;20618;-67
2023/02/02 08:46:13;;;;;;;3.07;2.63;;;2.00;99.90;3.30;96967.00;;;;5058445;28;20426;-66
2023/02/02 08:49:02;;;;;;;2.33;2.17;;;2.10;99.90;3.40;96970.00;;;;5063791;28;20560;-66
2023/02/02 08:51:51;;;;;;;2.97;2.77;;;2.30;99.90;3.30;96974.00;;;;5060861;28;20953;-66
2023/02/02 08:54:40;;;;;;;2.50;2.10;;;;;3.20;96976.00;;;;5065646;28;20415;-66
2023/02/02 08:57:31;;;;;;;1.23;1.23;;;2.20;99.90;3.20;96984.00;;;;5057893;28;20450;-66
2023/02/02 09:00:21;;;;;;;6.60;6.00;;;2.20;99.90;3.00;97002.00;;;;5063902;28;20427;-67
2023/02/02 09:03:11;;;;;;;1.93;1.73;;;2.20;99.90;2.90;96990.00;;;;5063280;28;20442;-66
2023/02/02 09:06:05;;;;;;;2.90;1.80;;;2.20;99.90;3.00;96999.00;;;;5065645;28;20430;-66
2023/02/02 09:08:53;;;;;;;1.60;1.50;;;2.10;99.90;3.10;97000.00;;;;5068398;28;20465;-67
2023/02/02 09:11:43;;;;;;;2.13;1.97;;;2.10;99.90;3.30;97004.00;;;;5065982;28;20415;-66
2023/02/02 09:14:32;;;;;;;2.20;2.00;;;2.20;99.90;3.50;97001.00;;;;5066451;28;20957;-67
2023/02/02 09:17:21;;;;;;;1.60;1.47;;;2.10;99.90;3.50;97003.00;;;;5073208;28;20492;-68
2023/02/02 09:20:12;;;;;;;2.37;2.20;;;2.30;99.90;3.50;97006.00;;;;5072714;28;20491;-66
2023/02/02 09:23:02;;;;;;;3.93;3.00;;;2.30;99.90;3.50;97008.00;;;;5071581;28;20461;-67
2023/02/02 09:25:51;;;;;;;2.80;2.60;;;;;3.50;97014.00;;;;5061890;28;20419;-65
2023/02/02 09:28:41;;;;;;;5.67;4.10;;;2.30;99.90;3.40;97017.00;;;;5067614;28;20470;-67
2023/02/02 09:31:32;;;;;;;5.13;4.63;;;2.40;99.90;3.40;97019.00;;;;5066636;22;20897;-87
2023/02/02 09:34:22;;;;;;;6.67;4.90;;;;;3.30;97004.00;;;;5042661;28;20428;-87
2023/02/02 09:37:12;;;;;;;10.60;6.47;;;2.40;99.90;3.20;97020.00;;;;5043795;28;20534;-88
2023/02/02 09:40:01;;;;;;;12.67;5.60;;;;;3.50;97024.00;;;;5038597;28;20435;-87
2023/02/02 09:43:02;;;;;;;5.93;4.63;;;2.30;99.90;3.50;97013.00;;;;5036041;28;20435;-87
2023/02/02 09:46:02;;;;;;;8.53;5.10;;;2.30;99.90;3.40;97017.00;;;;5037853;28;20408;-88
2023/02/02 09:49:00;;;;;;;5.70;4.50;;;2.30;99.90;3.40;97022.00;;;;5035519;28;20467;-87
2023/02/02 09:51:57;;;;;;;5.30;4.80;;;2.40;99.90;3.40;97032.00;;;;5033253;28;20428;-87
2023/02/02 09:54:50;;;;;;;5.87;4.57;;;2.30;99.90;3.40;97032.00;;;;5041477;28;20955;-87
2023/02/02 09:57:46;;;;;;;7.17;5.50;;;2.40;99.90;3.50;97027.00;;;;5028790;28;21098;-87
2023/02/02 10:00:38;;;;;;;13.37;4.57;;;2.40;99.90;3.60;97031.00;;;;5040540;28;20447;-88
2023/02/02 10:03:37;;;;;;;5.33;4.53;;;2.50;99.90;3.60;97030.00;;;;5039365;28;20432;-86
2023/02/02 10:06:35;;;;;;;8.97;4.63;;;2.50;99.90;3.80;97028.00;;;;5040045;28;20867;-87
2023/02/02 10:09:34;;;;;;;4.73;3.93;;;2.60;99.90;3.80;97043.00;;;;5039979;28;20467;-87
2023/02/02 10:12:34;;;;;;;6.27;4.10;;;2.60;99.90;3.90;97042.00;;;;5027949;28;20440;-87
2023/02/02 10:15:35;;;;;;;6.53;3.30;;;2.60;99.90;3.90;97021.00;;;;5040267;28;20424;-88
2023/02/02 10:18:36;;;;;;;4.60;3.80;;;2.70;99.90;4.00;97028.00;;;;5037828;28;20452;-87
2023/02/02 10:21:33;;;;;;;4.60;3.63;;;2.70;99.90;4.00;97031.00;;;;5035826;28;20816;-87
2023/02/02 10:24:26;;;;;;;4.50;3.40;;;2.80;99.90;4.00;97035.00;;;;5038550;28;20424;-88
2023/02/02 10:27:21;;;;;;;5.40;4.40;;;2.80;99.90;4.00;97035.00;;;;5029604;28;20533;-87
2023/02/02 10:30:19;;;;;;;7.30;4.70;;;2.80;99.90;4.00;97036.00;;;;5037422;28;20463;-87
2023/02/02 10:33:18;;;;;;;7.60;6.77;;;2.80;99.90;4.20;97044.00;;;;5033103;28;20460;-86
2023/02/02 10:36:18;;;;;;;6.00;4.87;;;2.90;99.90;4.30;97042.00;;;;5032609;28;20475;-87
2023/02/02 10:39:22;;;;;;;5.83;4.80;;;3.00;99.90;4.40;97041.00;;;;5031793;28;20432;-87
2023/02/02 10:42:26;;;;;;;6.50;3.90;;;3.00;99.90;4.20;97039.00;;;;5033542;28;20972;-88
2023/02/02 10:45:19;;;;;;;8.17;6.60;;;3.00;99.90;4.00;97033.00;;;;5033934;28;20417;-88
2023/02/02 10:48:17;;;;;;;8.80;7.57;;;3.00;99.90;3.70;97028.00;;;;5036085;28;20456;-87
2023/02/02 10:51:18;;;;;;;12.40;6.33;;;2.90;99.90;3.80;97032.00;;;;5032503;28;20850;-87
2023/02/02 10:54:28;;;;;;;6.27;5.20;;;2.90;99.90;4.20;97027.00;;;;5041771;28;20481;-87
2023/02/02 10:57:30;;;;;;;7.90;5.40;;;3.00;99.90;4.00;97020.00;;;;5034936;28;20444;-87
2023/02/02 11:00:25;;;;;;;6.50;4.33;;;3.00;99.90;4.00;97023.00;;;;5036916;28;20802;-87
2023/02/02 11:03:18;;;;;;;8.87;5.50;;;3.00;99.90;4.20;97031.00;;;;5037900;28;20457;-88
2023/02/02 11:09:15;;;;;;;6.07;4.47;;;;;4.50;97017.00;;;;5035023;28;20436;-87
2023/02/02 11:12:13;;;;;;;8.57;4.10;;;1.00;99.90;4.60;97022.00;;;;5037254;28;20444;-87
2023/02/02 11:15:07;;;;;;;8.43;4.97;;;3.30;99.90;4.70;97011.00;;;;5032822;28;20427;-87
2023/02/02 11:18:15;;;;;;;4.40;4.00;;;3.40;99.90;4.80;97003.00;;;;5028885;28;20459;-87
2023/02/02 11:21:17;;;;;;;4.97;4.50;;;3.60;99.90;4.80;97013.00;;;;5035470;28;20433;-86
2023/02/02 11:24:19;;;;;;;6.03;3.63;;;3.50;99.90;4.80;97007.00;;;;5042946;28;20788;-88
2023/02/02 11:27:14;;;;;;;9.63;7.00;;;3.60;99.90;5.00;96989.00;;;;5033138;28;20841;-87
2023/02/02 11:30:21;;;;;;;6.23;4.60;;;3.60;99.90;5.10;96997.00;;;;5035444;28;20471;-87
2023/02/02 11:33:28;;;;;;;3.43;3.13;;;3.70;99.90;5.10;96997.00;;;;5035003;28;20478;-87
2023/02/02 11:36:21;;;;;;;3.10;2.87;;;3.70;99.90;4.90;96983.00;;;;5030878;28;20458;-87
2023/02/02 11:39:20;;;;;;;3.63;2.77;;;4.00;99.90;4.80;96987.00;;;;5032674;28;20432;-87
2023/02/02 11:42:16;;;;;;;8.20;7.07;;;3.60;99.90;4.60;96980.00;;;;5032672;28;21139;-89
2023/02/02 11:45:06;;;;;;;4.43;4.00;;;;;4.80;96983.00;;;;5032500;28;20451;-87
2023/02/02 11:48:00;;;;;;;5.00;3.83;;;;;5.00;96978.00;;;;5032971;28;20448;-87
2023/02/02 11:50:54;;;;;;;6.73;4.23;;;3.70;99.90;4.90;96980.00;;;;5032475;28;20468;-87
2023/02/02 11:53:48;;;;;;;6.77;5.30;;;3.70;99.90;5.00;96980.00;;;;5032252;28;20432;-87
2023/02/02 11:56:38;;;;;;;5.43;4.00;;;6.50;99.90;5.10;96989.00;;;;5024043;28;20225;-87
2023/02/02 11:59:32;;;;;;;6.37;3.27;;;3.70;99.90;5.10;96977.00;;;;5025390;28;20460;-87
2023/02/02 12:02:30;;;;;;;4.77;4.30;;;3.70;99.90;5.10;96984.00;;;;5030514;28;20901;-88
2023/02/02 12:05:36;;;;;;;4.67;3.03;;;4.00;99.90;5.10;96988.00;;;;5025753;28;20209;-87
2023/02/02 12:08:27;;;;;;;3.00;2.80;;;3.80;99.90;5.10;96981.00;;;;5022449;28;20220;-88
2023/02/02 12:11:36;;;;;;;2.87;2.37;;;3.90;99.90;5.10;96992.00;;;;5025995;28;20225;-87
2023/02/02 12:14:39;;;;;;;10.33;2.87;;;3.90;99.90;5.10;96981.00;;;;5026950;28;20204;-88
2023/02/02 12:17:39;;;;;;;2.50;2.13;;;4.10;99.90;5.10;96979.00;;;;5027819;28;20232;-86
2023/02/02 12:20:38;;;;;;;4.03;2.97;;;3.90;99.90;5.10;96974.00;;;;5031218;28;20216;-86
2023/02/02 12:23:57;;;;;;;4.80;2.47;;;4.10;99.90;5.10;96973.00;;;;5032028;28;20212;-86
2023/02/02 12:26:56;;;;;;;6.40;3.33;;;4.00;99.90;5.00;96982.00;;;;5031024;28;20679;-86
2023/02/02 12:30:17;;;;;;;5.33;4.70;;;3.90;99.90;4.90;96980.00;;;;5031499;28;20208;-86
2023/02/02 12:33:23;;;;;;;3.40;3.10;;;4.10;99.90;5.00;96981.00;;;;5020820;28;20221;-87
2023/02/02 12:36:29;;;;;;;3.83;2.43;;;3.90;99.90;4.80;96974.00;;;;5026600;28;20212;-86
2023/02/02 12:39:31;;;;;;;3.50;2.53;;;4.00;99.90;4.90;96974.00;;;;5030399;28;20197;-86
2023/02/02 12:42:41;;;;;;;6.13;2.33;;;3.80;99.90;5.00;96970.00;;;;5029455;28;20203;-87
2023/02/02 12:45:48;;;;;;;2.60;2.40;;;3.70;99.90;4.90;96972.00;;;;5031462;28;20203;-87
2023/02/02 12:48:51;;;;;;;4.93;3.40;;;3.90;99.90;4.90;96963.00;;;;5026881;28;20207;-86
2023/02/02 12:51:59;;;;;;;3.50;2.00;;;3.80;99.90;4.90;96965.00;;;;5029694;28;20602;-86
2023/02/02 12:55:15;;;;;;;3.17;2.23;;;3.90;99.90;5.00;96948.00;;;;5039707;28;20216;-86
2023/02/02 12:58:16;;;;;;;2.67;2.47;;;3.70;99.90;5.00;96971.00;;;;5028574;28;20217;-86
2023/02/02 13:01:23;;;;;;;2.17;1.97;;;3.70;99.90;5.10;96960.00;;;;5039934;28;20212;-86
2023/02/02 13:04:48;;;;;;;2.43;2.10;;;3.80;99.90;5.00;96962.00;;;;5041393;28;20438;-86
2023/02/02 13:07:43;;;;;;;4.87;2.03;;;3.70;99.90;5.00;96966.00;;;;5033440;28;20221;-86
2023/02/02 13:10:37;;;;;;;3.83;1.77;;;4.10;99.90;5.00;96962.00;;;;5029890;28;21002;-87
2023/02/02 13:13:33;;;;;;;5.73;2.50;;;3.90;99.90;5.10;96970.00;;;;5029089;28;20205;-87
2023/02/02 13:16:22;;;;;;;3.77;2.90;;;3.80;99.90;5.10;96968.00;;;;5031137;28;20668;-87
2023/02/02 13:19:18;;;;;;;3.63;2.93;;;2.60;99.90;5.10;96971.00;;;;5018358;28;20213;-88
2023/02/02 13:22:15;;;;;;;2.90;2.60;;;3.90;99.90;5.10;96958.00;;;;5028609;28;20213;-86
2023/02/02 13:25:09;;;;;;;4.17;2.90;;;3.70;99.90;5.20;96972.00;;;;5030157;28;20193;-86